Time;durP1;ratioP1;P1;durP2;ratioP2;P2;SDS_P1;SDS_P2;PMS_P1;PMS_P2;Temp;Humidity;BMP_temperature;BMP_pressure;BME280_temperature;BME280_humidity;BME280_pressure;Samples;Min_cycle;Max_cycle;Signal;HPM_P1;HPM_P2
2021/12/25 00:02:09;;;;;;;12.52;10.93;;;;;;;27.78;53.14;101161.75;5008984;28;65641;-35
2021/12/25 00:04:40;;;;;;;12.30;10.93;;;;;;;27.76;53.35;101163.81;5030859;28;69827;-34
2021/12/25 00:07:11;;;;;;;12.82;9.95;;;;;;;27.83;53.68;101162.88;5012347;28;66572;-34
2021/12/25 00:09:42;;;;;;;12.52;10.95;;;;;;;27.79;53.30;101155.31;5005273;28;70148;-35
2021/12/25 00:12:12;;;;;;;13.00;11.40;;;;;;;27.72;53.64;101152.59;5019870;28;65524;-34
2021/12/25 00:14:44;;;;;;;15.33;10.53;;;;;;;27.83;53.95;101175.50;5014387;28;69255;-33
2021/12/25 00:17:14;;;;;;;14.13;10.82;;;;;;;27.98;53.85;101184.38;5028797;28;65343;-34
2021/12/25 00:19:45;;;;;;;22.45;13.80;;;;;;;27.94;56.32;101193.84;5014499;28;71037;-34
2021/12/25 00:22:16;;;;;;;53.13;25.48;;;;;;;28.03;57.48;101194.59;5011897;28;65392;-34
2021/12/25 00:24:48;;;;;;;67.47;31.77;;;;;;;28.12;58.84;101193.41;5010375;28;70493;-33
2021/12/25 00:27:39;;;;;;;73.83;33.60;;;;;;;28.17;60.03;101198.22;5014617;28;65501;-34
2021/12/25 00:30:20;;;;;;;72.07;33.67;;;;;;;28.18;62.87;101205.28;5016353;28;69835;-35
2021/12/25 00:32:55;;;;;;;64.30;33.95;;;;;;;28.17;64.52;101203.63;5016255;28;65319;-34
2021/12/25 00:35:26;;;;;;;56.80;33.15;;;;;;;28.14;66.45;101201.28;5017354;28;70335;-34
2021/12/25 00:37:57;;;;;;;62.93;33.07;;;;;;;28.23;64.71;101203.69;5016235;28;66746;-34
2021/12/25 00:40:28;;;;;;;58.20;34.83;;;;;;;28.20;66.09;101208.63;5018360;28;70204;-34
2021/12/25 00:42:59;;;;;;;52.38;33.78;;;;;;;28.22;65.37;101220.03;5018998;28;66077;-35
2021/12/25 00:45:30;;;;;;;59.50;34.08;;;;;;;28.15;66.14;101208.38;5018212;28;69784;-34
2021/12/25 00:48:01;;;;;;;61.37;36.10;;;;;;;28.06;66.80;101203.13;5017137;28;65656;-34
2021/12/25 00:50:33;;;;;;;60.35;36.38;;;;;;;28.15;66.37;101208.38;5015271;28;69846;-35
2021/12/25 00:53:04;;;;;;;67.03;37.25;;;;;;;28.22;66.49;101220.91;5004372;28;67130;-36
2021/12/25 00:55:35;;;;;;;66.07;36.55;;;;;;;28.11;68.08;101204.38;5011286;28;70694;-36
2021/12/25 00:58:07;;;;;;;64.95;36.30;;;;;;;28.11;67.35;101213.34;5005591;28;65194;-36
2021/12/25 01:00:39;;;;;;;72.45;36.33;;;;;;;28.17;67.17;101226.03;5015063;28;69950;-35
2021/12/25 01:03:11;;;;;;;82.30;37.97;;;;;;;28.12;67.42;101216.84;5004622;28;67185;-33
2021/12/25 01:05:42;;;;;;;58.30;33.53;;;;;;;28.13;68.25;101224.75;5014600;28;70066;-35
2021/12/25 01:08:13;;;;;;;61.15;33.55;;;;;;;28.19;67.67;101228.53;5014936;28;64615;-34
2021/12/25 01:10:45;;;;;;;61.33;33.08;;;;;;;28.13;69.18;101229.31;4993651;28;69892;-34
2021/12/25 01:13:25;;;;;;;55.58;33.10;;;;;;;28.18;67.41;101227.69;5016953;28;67246;-35
2021/12/25 01:21:52;;;;;;;56.67;34.03;;;;;;;28.12;67.78;101220.38;5016350;28;69353;-35
2021/12/25 01:24:42;;;;;;;60.40;31.67;;;;;;;28.18;67.36;101224.16;5016803;28;65433;-34
2021/12/25 01:30:20;;;;;;;49.85;31.10;;;;;;;28.24;67.23;101237.69;5009549;28;66584;-33
2021/12/25 01:33:22;;;;;;;58.22;31.27;;;;;;;28.18;67.82;101248.44;5032745;28;70052;-35
2021/12/25 01:39:18;;;;;;;48.95;31.42;;;;;;;28.17;68.32;101241.41;5009898;28;70173;-35
2021/12/25 01:48:27;;;;;;;56.30;35.08;;;;;;;28.17;68.52;101236.00;5005464;28;65250;-35
2021/12/25 01:50:58;;;;;;;57.90;34.85;;;;;;;28.27;67.99;101237.31;5011133;28;70252;-35
2021/12/25 01:53:29;;;;;;;55.20;36.65;;;;;;;28.34;67.35;101252.75;5013207;28;66512;-34
2021/12/25 01:56:01;;;;;;;58.40;36.47;;;;;;;28.35;67.69;101249.84;5010201;28;69808;-35
2021/12/25 01:58:35;;;;;;;57.08;36.25;;;;;;;28.32;69.16;101249.41;5012167;28;66483;-34
2021/12/25 02:01:08;;;;;;;62.50;37.42;;;;;;;28.27;68.28;101223.81;5008950;28;70372;-35
2021/12/25 02:03:41;;;;;;;51.97;34.63;;;;;;;28.40;67.75;101233.91;5009262;28;66091;-35
2021/12/25 02:06:13;;;;;;;58.42;37.45;;;;;;;28.42;67.96;101239.13;4998171;28;70448;-34
2021/12/25 02:08:44;;;;;;;52.40;36.47;;;;;;;28.50;68.31;101247.94;5011953;28;66225;-34
2021/12/25 02:11:15;;;;;;;64.95;38.35;;;;;;;28.54;67.72;101242.16;5010398;28;70757;-34
2021/12/25 02:13:48;;;;;;;59.97;37.22;;;;;;;28.59;67.84;101245.09;5013701;28;66320;-35
2021/12/25 02:16:26;;;;;;;60.65;41.22;;;;;;;28.56;68.53;101240.09;5008058;28;69814;-34
2021/12/25 02:19:20;;;;;;;69.60;44.50;;;;;;;28.64;67.23;101232.69;5015364;28;66199;-34
2021/12/25 02:21:58;;;;;;;70.63;44.65;;;;;;;28.59;68.48;101235.13;5007828;28;70196;-33
2021/12/25 02:24:30;;;;;;;70.10;42.92;;;;;;;28.65;67.63;101230.81;4973874;28;66525;-37
2021/12/25 02:27:01;;;;;;;67.70;43.67;;;;;;;28.67;67.55;101226.06;5011002;28;70503;-34
2021/12/25 02:29:33;;;;;;;67.05;43.45;;;;;;;28.70;67.14;101225.66;5014830;28;66584;-35
2021/12/25 02:32:06;;;;;;;68.13;42.45;;;;;;;28.71;66.82;101232.72;5028145;28;69465;-35
2021/12/25 02:34:40;;;;;;;63.88;40.45;;;;;;;28.71;66.93;101227.31;5000870;28;66217;-34
2021/12/25 02:37:12;;;;;;;63.35;41.47;;;;;;;28.80;66.98;101231.53;4995766;28;69240;-35
2021/12/25 02:39:43;;;;;;;57.53;39.65;;;;;;;28.77;66.77;101221.13;5029003;28;67427;-35
2021/12/25 02:42:14;;;;;;;57.28;38.78;;;;;;;28.79;67.24;101231.72;5004630;28;70751;-34
2021/12/25 02:44:45;;;;;;;60.42;40.10;;;;;;;28.84;67.03;101227.41;4994417;28;66553;-35
2021/12/25 02:47:20;;;;;;;59.47;38.42;;;;;;;28.87;66.96;101227.00;5011201;28;70250;-35
2021/12/25 02:49:54;;;;;;;56.55;35.72;;;;;;;28.91;66.70;101222.84;5009857;28;66294;-33
2021/12/25 02:52:25;;;;;;;51.40;33.63;;;;;;;28.85;67.02;101228.22;5010620;28;70062;-35
2021/12/25 02:54:56;;;;;;;52.85;35.45;;;;;;;28.99;66.60;101231.84;4992459;28;67276;-35
2021/12/25 02:57:26;;;;;;;52.28;33.95;;;;;;;28.95;67.18;101224.16;5004125;28;69837;-35
2021/12/25 02:59:57;;;;;;;56.05;35.25;;;;;;;29.06;66.91;101213.81;5022186;28;66287;-35
2021/12/25 03:02:28;;;;;;;49.55;32.53;;;;;;;29.04;67.16;101222.16;4973491;28;69320;-33
2021/12/25 03:04:59;;;;;;;60.10;38.53;;;;;;;29.09;66.60;101208.88;5006849;28;66845;-34
2021/12/25 03:07:30;;;;;;;58.40;37.83;;;;;;;29.15;66.75;101218.06;5008215;28;70041;-34
2021/12/25 03:10:01;;;;;;;49.33;36.45;;;;;;;29.18;65.96;101209.53;5005005;28;66168;-34
2021/12/25 03:12:46;;;;;;;48.17;34.07;;;;;;;29.15;66.41;101209.94;5009901;28;68802;-34
2021/12/25 03:15:27;;;;;;;52.17;34.53;;;;;;;29.19;66.13;101208.50;5006644;28;65636;-36
2021/12/25 03:17:59;;;;;;;61.08;35.78;;;;;;;29.28;66.19;101207.31;5017722;28;70219;-34
2021/12/25 03:20:29;;;;;;;52.10;34.40;;;;;;;29.35;65.65;101208.16;5010208;28;66563;-36
2021/12/25 03:23:01;;;;;;;47.42;32.13;;;;;;;29.30;66.38;101196.28;5021005;28;70344;-34
2021/12/25 03:25:32;;;;;;;48.25;36.00;;;;;;;29.36;65.60;101207.13;4993392;28;65260;-34
2021/12/25 03:28:03;;;;;;;61.47;39.00;;;;;;;29.43;65.33;101207.16;4992840;28;69342;-34
2021/12/25 03:30:38;;;;;;;45.05;35.67;;;;;;;29.44;65.25;101200.69;5006985;28;66488;-35
2021/12/25 03:33:15;;;;;;;52.75;35.80;;;;;;;29.42;65.29;101188.41;5013115;28;70409;-34
2021/12/25 03:35:48;;;;;;;51.30;33.97;;;;;;;29.55;65.06;101212.78;4996489;28;66220;-34
2021/12/25 03:38:21;;;;;;;45.30;33.17;;;;;;;29.57;65.01;101211.56;5007096;28;69983;-34
2021/12/25 03:40:53;;;;;;;46.10;31.10;;;;;;;29.57;65.16;101208.03;4994737;28;66590;-33
2021/12/25 03:43:24;;;;;;;42.63;30.60;;;;;;;29.61;65.66;101211.97;4992666;28;69289;-35
2021/12/25 03:45:55;;;;;;;48.50;31.88;;;;;;;29.55;65.50;101194.69;5001904;28;66523;-34
2021/12/25 03:48:44;;;;;;;44.37;34.40;;;;;;;29.64;64.73;101200.78;4994967;28;70353;-35
2021/12/25 03:59:47;;;;;;;48.08;33.63;;;;;;;29.78;64.27;101180.00;5008182;28;70287;-36
2021/12/25 04:02:23;;;;;;;49.15;33.47;;;;;;;29.83;64.66;101189.16;5008386;28;66638;-34
2021/12/25 04:04:56;;;;;;;45.47;31.50;;;;;;;29.79;64.13;101182.50;5008247;28;69924;-33
2021/12/25 04:10:38;;;;;;;44.38;32.72;;;;;;;29.80;64.26;101173.34;4985916;28;69814;-33
2021/12/25 04:13:12;;;;;;;52.78;32.38;;;;;;;29.61;64.70;101130.88;5010550;28;65217;-35
2021/12/25 04:15:44;;;;;;;48.05;34.45;;;;;;;29.99;63.59;101165.47;5003273;28;70648;-34
2021/12/25 04:18:15;;;;;;;50.08;33.40;;;;;;;29.92;64.30;101165.47;4996251;28;66433;-35
2021/12/25 04:20:46;;;;;;;43.47;34.67;;;;;;;30.02;63.75;101170.47;5001304;28;69594;-36
2021/12/25 04:23:23;;;;;;;54.97;39.03;;;;;;;29.93;63.26;101140.09;4984596;28;66341;-35
2021/12/25 04:25:56;;;;;;;54.67;41.35;;;;;;;30.08;62.49;101153.41;5005998;28;70179;-35
2021/12/25 04:28:58;;;;;;;52.95;39.78;;;;;;;30.06;62.38;101139.25;5015956;28;65634;-33
2021/12/25 04:31:31;;;;;;;61.17;41.08;;;;;;;30.15;62.93;101143.41;5028417;28;70118;-34
2021/12/25 05:02:04;;;;;;;39.50;32.47;;;;;;;30.03;59.83;101090.97;4993542;28;65214;-34
2021/12/25 05:05:13;;;;;;;48.55;33.20;;;;;;;29.91;59.09;101076.44;4992413;28;70312;-35
2021/12/25 05:07:57;;;;;;;42.90;33.03;;;;;;;29.85;58.14;101069.97;5014867;28;66241;-33
2021/12/25 05:10:28;;;;;;;41.75;31.33;;;;;;;29.75;57.55;101058.75;4982719;28;68915;-34
2021/12/25 05:12:59;;;;;;;43.10;30.33;;;;;;;29.72;57.27;101049.19;5002559;28;66242;-34
2021/12/25 05:15:30;;;;;;;38.00;29.10;;;;;;;29.60;56.12;101031.91;4990666;28;69923;-34
2021/12/25 05:18:02;;;;;;;34.33;29.63;;;;;;;29.55;55.39;101042.50;5022878;28;66629;-34
2021/12/25 05:20:32;;;;;;;42.55;28.70;;;;;;;29.50;54.59;101028.78;5023024;28;70764;-33
2021/12/25 05:23:03;;;;;;;39.35;25.80;;;;;;;29.52;54.08;101045.63;5008038;28;66297;-39
2021/12/25 05:25:34;;;;;;;53.65;25.23;;;;;;;29.48;54.80;101038.97;5009313;28;70591;-32
2021/12/25 05:28:05;;;;;;;;;;;;;;;29.20;53.39;101042.69;5012759;28;67179;-33
2021/12/25 05:30:37;;;;;;;35.22;24.10;;;;;;;29.49;54.35;101021.72;5008439;28;69804;-33
2021/12/25 05:33:34;;;;;;;37.47;22.63;;;;;;;29.48;53.59;101022.75;5020397;28;65825;-33
2021/12/25 05:36:28;;;;;;;42.50;23.30;;;;;;;29.30;52.04;100990.94;5012871;28;69640;-32
2021/12/25 05:39:20;;;;;;;33.83;22.55;;;;;;;29.39;51.59;101012.16;5007424;28;66559;-33
2021/12/25 05:41:51;;;;;;;25.38;22.02;;;;;;;29.36;50.79;101007.16;5009516;28;70729;-32
2021/12/25 05:44:25;;;;;;;36.92;21.35;;;;;;;29.33;50.14;101010.25;5010408;28;65414;-33
2021/12/25 05:47:34;;;;;;;38.40;21.95;;;;;;;29.26;49.90;100998.63;5014173;28;69916;-33
2021/12/25 05:50:34;;;;;;;23.23;20.67;;;;;;;29.15;48.95;100983.03;5012326;28;66064;-33
2021/12/25 05:53:17;;;;;;;34.75;19.35;;;;;;;29.10;48.62;100970.13;5014345;28;69550;-33
2021/12/25 05:56:26;;;;;;;23.40;20.20;;;;;;;29.13;47.94;100982.41;5008658;28;66255;-32
2021/12/25 05:59:15;;;;;;;23.48;20.20;;;;;;;29.12;47.83;100980.75;5010169;28;70542;-33
2021/12/25 06:02:15;;;;;;;23.45;19.25;;;;;;;29.07;47.14;100969.72;5006052;28;65561;-33
2021/12/25 06:04:47;;;;;;;;;;;;;;;28.73;44.56;100971.50;5029890;28;69742;-33
2021/12/25 06:07:21;;;;;;;21.13;18.33;;;;;;;28.95;46.97;100959.50;5013258;28;66695;-33
2021/12/25 06:09:52;;;;;;;20.63;18.50;;;;;;;28.98;46.19;100957.44;5013685;28;69503;-33
2021/12/25 06:12:23;;;;;;;20.10;17.83;;;;;;;28.99;46.56;100951.81;4995045;28;65954;-33
2021/12/25 06:15:00;;;;;;;19.73;17.80;;;;;;;28.95;46.13;100948.69;5002451;28;69199;-33
2021/12/25 06:17:51;;;;;;;21.25;17.83;;;;;;;28.83;46.28;100927.91;5004409;28;65666;-32
2021/12/25 06:20:33;;;;;;;19.48;17.58;;;;;;;28.96;46.27;100939.53;5012977;28;70574;-33
2021/12/25 06:23:41;;;;;;;19.48;17.23;;;;;;;29.02;46.46;100939.75;5014736;28;66933;-33
2021/12/25 06:26:55;;;;;;;18.92;17.38;;;;;;;29.04;46.46;100929.63;5008179;28;69667;-32
2021/12/25 06:29:44;;;;;;;20.00;17.48;;;;;;;29.09;46.52;100927.16;5008568;28;66441;-33
2021/12/25 06:32:34;;;;;;;19.83;17.85;;;;;;;29.11;46.25;100917.78;5001851;28;70583;-33
2021/12/25 06:35:23;;;;;;;18.92;16.95;;;;;;;29.11;46.06;100925.91;5008847;28;66240;-32
2021/12/25 06:38:13;;;;;;;18.77;15.90;;;;;;;29.12;46.48;100910.53;5010943;28;70501;-32
2021/12/25 06:41:03;;;;;;;19.40;16.23;;;;;;;29.15;46.64;100910.94;5012642;28;65396;-32
2021/12/25 06:43:35;;;;;;;17.38;15.73;;;;;;;29.20;46.18;100918.41;5012684;28;69459;-34
2021/12/25 06:46:07;;;;;;;17.15;15.57;;;;;;;29.23;46.08;100907.19;5008543;28;66495;-32
2021/12/25 06:48:38;;;;;;;16.27;14.88;;;;;;;29.23;45.93;100904.50;5023505;28;70373;-32
2021/12/25 06:51:13;;;;;;;16.98;15.38;;;;;;;29.19;45.96;100889.72;5009148;28;65369;-32
2021/12/25 06:54:09;;;;;;;16.75;15.02;;;;;;;29.27;46.10;100905.72;5011270;28;69234;-32
2021/12/25 06:56:51;;;;;;;;;;;;;;;29.03;44.76;100909.00;5007090;28;65335;-33
2021/12/25 06:59:26;;;;;;;15.90;14.55;;;;;;;29.20;46.05;100883.28;5009198;28;69680;-33
2021/12/25 07:01:57;;;;;;;17.20;15.45;;;;;;;29.33;45.97;100901.34;4998768;28;66340;-34
2021/12/25 07:04:47;;;;;;;16.80;15.20;;;;;;;29.27;45.96;100881.41;5014237;28;69662;-34
2021/12/25 07:07:43;;;;;;;14.98;13.75;;;;;;;29.30;46.08;100880.97;5014460;28;66616;-33
2021/12/25 07:10:40;;;;;;;15.45;14.35;;;;;;;29.33;45.84;100883.25;5012621;28;69573;-34
2021/12/25 07:13:23;;;;;;;15.48;13.90;;;;;;;29.40;45.36;100892.19;5012460;28;66257;-33
2021/12/25 07:16:18;;;;;;;15.40;14.13;;;;;;;29.41;45.41;100887.63;5005380;28;69840;-33
2021/12/25 07:19:15;;;;;;;15.75;14.15;;;;;;;29.44;45.42;100880.97;5003005;28;65609;-35
2021/12/25 07:22:03;;;;;;;16.13;14.45;;;;;;;29.42;45.58;100877.63;5013556;28;70828;-34
2021/12/25 07:24:56;;;;;;;15.05;13.88;;;;;;;29.44;44.97;100864.75;5011997;28;66440;-33
2021/12/25 07:27:49;;;;;;;16.05;13.88;;;;;;;29.45;45.14;100866.41;5008835;28;69109;-33
2021/12/25 07:30:21;;;;;;;15.07;13.63;;;;;;;29.43;45.13;100872.03;5005862;28;66014;-34
2021/12/25 07:32:51;;;;;;;14.25;12.90;;;;;;;29.42;44.65;100856.03;5012332;28;70502;-33
2021/12/25 07:35:22;;;;;;;14.30;13.30;;;;;;;29.28;44.11;100839.84;5021570;28;66425;-33
2021/12/25 07:37:55;;;;;;;14.50;12.90;;;;;;;29.49;44.40;100862.25;5015289;28;69378;-33
2021/12/25 07:40:26;;;;;;;13.70;12.70;;;;;;;29.44;44.04;100848.53;5021695;28;66512;-34
2021/12/25 07:42:57;;;;;;;13.63;12.70;;;;;;;29.53;44.38;100864.34;5013871;28;70369;-33
2021/12/25 07:46:01;;;;;;;14.35;13.02;;;;;;;29.56;44.46;100860.34;5014012;28;65323;-34
2021/12/25 07:48:33;;;;;;;13.43;12.18;;;;;;;29.51;44.05;100843.97;5015348;28;69959;-32
2021/12/25 07:51:04;;;;;;;13.43;12.60;;;;;;;29.60;43.86;100845.38;5009548;28;65525;-33
2021/12/25 07:53:35;;;;;;;12.65;11.85;;;;;;;29.60;44.06;100848.09;5013676;28;69497;-33
2021/12/25 07:56:06;;;;;;;13.65;12.40;;;;;;;29.61;43.71;100838.91;5013913;28;66194;-33
2021/12/25 07:58:37;;;;;;;13.32;12.32;;;;;;;29.61;44.11;100834.38;5016199;28;69170;-34
2021/12/25 08:01:07;;;;;;;13.95;12.60;;;;;;;29.64;43.58;100843.09;5010667;28;65968;-34
2021/12/25 08:03:39;;;;;;;12.57;11.75;;;;;;;29.64;44.09;100827.72;5012338;28;70294;-33
2021/12/25 08:06:09;;;;;;;12.95;11.95;;;;;;;29.66;44.13;100833.75;5009107;28;66787;-33
2021/12/25 08:08:40;;;;;;;13.75;12.55;;;;;;;29.70;44.08;100829.59;5013060;28;69962;-34
2021/12/25 08:11:11;;;;;;;13.02;12.02;;;;;;;29.72;43.65;100832.88;5009737;28;66533;-33
2021/12/25 08:13:42;;;;;;;12.35;11.35;;;;;;;29.73;43.99;100834.56;5011975;28;70043;-35
2021/12/25 08:16:13;;;;;;;13.02;12.02;;;;;;;29.75;43.82;100845.16;5008479;28;66091;-34
2021/12/25 08:18:44;;;;;;;12.00;11.23;;;;;;;29.79;43.17;100836.41;5012585;28;70548;-34
2021/12/25 08:21:33;;;;;;;12.70;11.68;;;;;;;29.82;43.36;100837.84;5014091;28;65591;-33
2021/12/25 08:24:42;;;;;;;12.98;11.95;;;;;;;29.82;43.64;100835.97;5017114;28;69502;-33
2021/12/25 08:27:32;;;;;;;17.70;11.10;;;;;;;29.90;44.15;100836.78;5013627;28;65864;-33
2021/12/25 08:30:23;;;;;;;11.90;10.85;;;;;;;29.88;44.52;100822.66;5019424;28;69545;-34
2021/12/25 08:33:12;;;;;;;15.75;12.50;;;;;;;30.10;46.81;100836.69;5015117;28;66486;-32
2021/12/25 08:36:00;;;;;;;12.93;11.63;;;;;;;30.33;48.41;100847.00;5017314;28;69448;-34
2021/12/25 08:38:31;;;;;;;13.93;12.65;;;;;;;30.54;49.33;100846.66;5014513;28;65437;-34
2021/12/25 08:41:02;;;;;;;22.25;12.85;;;;;;;30.70;50.77;100848.84;5017143;28;70063;-34
2021/12/25 08:43:36;;;;;;;15.85;12.63;;;;;;;30.86;51.18;100846.66;5014920;28;65625;-33
2021/12/25 08:46:15;;;;;;;18.80;12.88;;;;;;;30.99;52.00;100846.53;5013498;28;70639;-33
2021/12/25 08:48:47;;;;;;;15.13;13.57;;;;;;;31.14;52.87;100855.13;5003809;28;66047;-33
2021/12/25 08:51:17;;;;;;;22.52;13.40;;;;;;;31.19;53.03;100840.94;5009359;28;70463;-35
2021/12/25 08:53:48;;;;;;;16.50;12.35;;;;;;;31.36;53.03;100852.03;5010313;28;66498;-34
2021/12/25 08:56:19;;;;;;;14.32;12.32;;;;;;;31.45;53.35;100850.69;5010124;28;69806;-34
2021/12/25 08:58:50;;;;;;;20.33;13.00;;;;;;;31.58;53.73;100860.56;5009478;28;66588;-34
2021/12/25 09:01:21;;;;;;;32.88;12.85;;;;;;;31.63;53.65;100852.59;5021128;28;70508;-35
2021/12/25 09:03:55;;;;;;;23.83;13.40;;;;;;;31.81;54.10;100865.31;5012077;28;67040;-33
2021/12/25 09:06:26;;;;;;;30.73;13.20;;;;;;;31.93;54.39;100870.81;5007985;28;69971;-33
2021/12/25 09:09:02;;;;;;;34.47;13.48;;;;;;;32.01;54.69;100876.78;5008975;28;66790;-32
2021/12/25 09:11:34;;;;;;;42.40;12.40;;;;;;;32.05;54.75;100861.69;5008647;28;69242;-35
2021/12/25 09:14:06;;;;;;;31.63;11.23;;;;;;;32.17;54.96;100863.63;5008445;28;66411;-35
2021/12/25 09:16:38;;;;;;;44.33;12.40;;;;;;;32.18;55.19;100859.84;5010709;28;70461;-34
2021/12/25 09:19:09;;;;;;;12.23;11.10;;;;;;;32.10;56.47;100873.75;5009750;28;66480;-34
2021/12/25 09:21:40;;;;;;;15.95;9.95;;;;;;;31.86;57.75;100856.50;5010050;28;70117;-34
2021/12/25 09:24:10;;;;;;;11.30;10.10;;;;;;;31.94;57.01;100876.03;5016942;28;65324;-35
2021/12/25 09:26:42;;;;;;;;;;;;;;;31.63;58.27;100870.75;5013550;28;69386;-34
2021/12/25 09:29:13;;;;;;;22.23;11.27;;;;;;;31.79;57.30;100867.44;5014141;28;66128;-35
2021/12/25 09:31:44;;;;;;;13.52;10.25;;;;;;;31.82;58.33;100877.84;5014289;28;70347;-34
2021/12/25 09:34:15;;;;;;;18.17;11.13;;;;;;;31.85;57.90;100877.38;5014481;28;66897;-34
2021/12/25 09:36:45;;;;;;;13.15;9.77;;;;;;;31.87;57.77;100875.25;5011317;28;70752;-35
2021/12/25 09:39:17;;;;;;;17.27;9.27;;;;;;;31.81;58.53;100859.88;5018772;28;66480;-35
2021/12/25 09:41:48;;;;;;;30.13;10.48;;;;;;;31.87;57.71;100880.66;5020586;28;70973;-35
2021/12/25 09:44:19;;;;;;;28.50;10.48;;;;;;;31.86;58.27;100889.88;4999196;28;65992;-33
2021/12/25 09:46:50;;;;;;;20.88;10.55;;;;;;;31.81;58.18;100884.28;5018087;28;70293;-34
2021/12/25 09:49:21;;;;;;;21.90;10.23;;;;;;;31.85;57.90;100887.41;5017754;28;65473;-35
2021/12/25 09:51:52;;;;;;;23.45;9.68;;;;;;;31.80;58.30;100882.66;5018564;28;70045;-34
2021/12/25 09:54:23;;;;;;;34.47;12.15;;;;;;;31.85;58.40;100890.13;5019314;28;66433;-34
2021/12/25 09:56:56;;;;;;;26.52;10.65;;;;;;;31.86;58.56;100898.00;5020548;28;69634;-33
2021/12/25 09:59:27;;;;;;;27.45;11.15;;;;;;;31.85;58.48;100893.66;5017060;28;66495;-34
2021/12/25 10:02:00;;;;;;;19.47;9.50;;;;;;;31.78;58.02;100895.59;5017252;28;69574;-34
2021/12/25 10:04:36;;;;;;;26.95;10.27;;;;;;;31.79;57.34;100905.41;5018614;28;66033;-34
2021/12/25 10:07:21;;;;;;;20.52;9.13;;;;;;;31.72;56.77;100910.06;5016052;28;70522;-40
2021/12/25 10:10:07;;;;;;;26.75;9.77;;;;;;;31.75;57.04;100915.03;5007958;28;66748;-35
2021/12/25 10:12:43;;;;;;;51.13;9.88;;;;;;;31.77;56.86;100915.66;5014965;28;69907;-34
2021/12/25 10:15:17;;;;;;;26.63;8.70;;;;;;;31.66;56.33;100894.69;5002016;28;66705;-35
2021/12/25 10:17:57;;;;;;;16.73;8.55;;;;;;;31.30;56.54;100861.03;5017311;28;69314;-34
2021/12/25 10:20:34;;;;;;;19.42;11.25;;;;;;;31.40;56.11;100872.25;5018503;28;66285;-35
2021/12/25 10:23:14;;;;;;;20.67;9.35;;;;;;;31.70;56.09;100926.53;5017495;28;69382;-34
2021/12/25 10:25:55;;;;;;;19.98;8.50;;;;;;;31.67;55.98;100926.19;5014312;28;66414;-34
2021/12/25 10:28:31;;;;;;;15.27;9.18;;;;;;;31.64;56.47;100919.31;5017704;28;69037;-34
2021/12/25 10:31:13;;;;;;;18.25;8.45;;;;;;;31.64;56.46;100929.34;5016207;28;67270;-34
2021/12/25 10:33:53;;;;;;;14.52;8.30;;;;;;;31.42;56.31;100877.41;5019455;28;70175;-33
2021/12/25 10:36:36;;;;;;;20.00;9.70;;;;;;;31.54;56.42;100897.34;5018947;28;66174;-35
2021/12/25 10:39:16;;;;;;;32.58;9.82;;;;;;;31.61;56.53;100915.16;5009660;28;69818;-34
2021/12/25 10:41:54;;;;;;;22.77;10.25;;;;;;;31.60;56.50;100913.53;5019732;28;66030;-35
2021/12/25 10:44:29;;;;;;;17.92;10.27;;;;;;;31.58;57.34;100921.03;5006583;28;70131;-34
2021/12/25 10:47:15;;;;;;;24.52;10.07;;;;;;;31.60;56.84;100918.13;5018364;28;66754;-33
2021/12/25 10:49:49;;;;;;;16.35;9.73;;;;;;;31.55;56.93;100907.13;5014994;28;70328;-33
2021/12/25 10:52:29;;;;;;;11.93;9.35;;;;;;;31.58;57.60;100929.19;5016084;28;66520;-34
2021/12/25 10:55:15;;;;;;;9.93;8.82;;;;;;;31.33;58.05;100890.41;5016534;28;69788;-33
2021/12/25 10:57:49;;;;;;;18.25;9.18;;;;;;;31.27;57.71;100886.72;5014444;28;66576;-34
2021/12/25 11:00:26;;;;;;;19.00;10.02;;;;;;;31.51;57.31;100914.88;5009209;28;70254;-34
2021/12/25 11:03:08;;;;;;;27.05;9.50;;;;;;;31.56;57.44;100939.41;5017284;28;43868;-33
2021/12/25 11:05:47;;;;;;;18.13;9.93;;;;;;;31.22;58.12;100902.81;5015709;28;69240;-35
2021/12/25 11:08:23;;;;;;;21.25;10.25;;;;;;;31.20;58.27;100901.38;5014663;28;65044;-34
2021/12/25 11:10:58;;;;;;;26.17;10.25;;;;;;;31.20;58.48;100920.34;5017236;28;69526;-35
2021/12/25 11:13:41;;;;;;;27.30;10.27;;;;;;;31.36;58.13;100963.19;5019839;28;66003;-34
2021/12/25 11:16:17;;;;;;;21.92;12.43;;;;;;;31.42;58.18;100975.84;5018310;28;70218;-34
2021/12/25 11:19:05;;;;;;;15.13;12.20;;;;;;;31.29;58.66;100978.66;5016692;28;65808;-34
2021/12/25 11:21:36;;;;;;;17.05;11.30;;;;;;;31.35;58.24;100980.47;5012992;28;70159;-34
2021/12/25 11:24:12;;;;;;;13.90;10.50;;;;;;;31.08;58.45;100950.84;5016596;28;65485;-36
2021/12/25 11:26:47;;;;;;;12.65;9.40;;;;;;;31.34;58.48;101005.91;5014550;28;69604;-36
2021/12/25 11:29:21;;;;;;;16.08;13.00;;;;;;;31.34;57.97;101005.91;5010187;28;66168;-34
2021/12/25 11:31:54;;;;;;;20.10;17.75;;;;;;;31.00;58.65;100977.38;5011189;28;70201;-34
2021/12/25 11:34:27;;;;;;;22.27;19.23;;;;;;;31.05;59.70;101018.22;5013640;28;66650;-34
2021/12/25 11:37:00;;;;;;;32.60;20.70;;;;;;;31.09;59.47;101016.72;5013342;28;69856;-37
2021/12/25 11:39:33;;;;;;;24.40;19.52;;;;;;;30.97;59.19;101000.31;5012918;28;65343;-35
2021/12/25 11:42:11;;;;;;;25.42;18.83;;;;;;;31.07;59.51;101038.63;5017994;28;70022;-34
2021/12/25 11:44:50;;;;;;;25.60;19.25;;;;;;;31.02;59.79;101043.84;5016631;28;66987;-34
2021/12/25 11:47:39;;;;;;;30.23;21.63;;;;;;;30.92;61.13;101057.88;5015928;28;69909;-33
2021/12/25 11:50:40;;;;;;;28.17;22.42;;;;;;;30.77;60.84;101040.22;5015672;28;66644;-36
2021/12/25 11:53:39;;;;;;;31.55;22.50;;;;;;;30.78;61.80;101056.22;5021287;28;69601;-35
2021/12/25 11:58:52;;;;;;;21.45;19.17;;;;;;;30.77;61.02;101078.13;5030487;28;70175;-35
2021/12/25 12:01:25;;;;;;;28.08;20.45;;;;;;;30.68;61.44;101064.81;5013393;28;67255;-35
2021/12/25 12:04:01;;;;;;;31.48;20.88;;;;;;;30.33;62.51;101014.78;5015603;28;70226;-34
2021/12/25 12:06:47;;;;;;;38.80;20.05;;;;;;;30.62;61.98;101068.41;5027689;28;65667;-35
2021/12/25 12:09:54;;;;;;;29.90;19.70;;;;;;;30.42;62.17;101048.66;5009789;28;69994;-33
2021/12/25 12:12:27;;;;;;;26.13;20.25;;;;;;;30.59;62.51;101044.47;5012804;28;65412;-35
2021/12/25 12:15:19;;;;;;;29.92;17.05;;;;;;;30.46;63.42;101020.16;5014520;28;69976;-34
2021/12/25 12:18:26;;;;;;;46.70;17.90;;;;;;;30.80;63.95;101080.44;5015481;28;66336;-35
2021/12/25 12:21:32;;;;;;;34.58;17.25;;;;;;;30.87;63.72;101082.06;5014080;28;70450;-35
2021/12/25 12:24:48;;;;;;;41.17;16.90;;;;;;;30.88;64.93;101083.72;5014335;28;66220;-35
2021/12/25 12:27:36;;;;;;;52.78;16.08;;;;;;;31.00;65.51;101096.59;5028283;28;69193;-34
2021/12/25 12:30:11;;;;;;;29.63;15.38;;;;;;;31.09;65.46;101104.25;5030449;28;66328;-35
2021/12/25 12:32:45;;;;;;;47.53;15.55;;;;;;;31.14;65.40;101115.25;4997507;28;70054;-35
2021/12/25 12:35:37;;;;;;;37.72;15.38;;;;;;;30.75;66.33;101063.97;5011594;28;66212;-35
2021/12/25 12:38:41;;;;;;;24.33;13.48;;;;;;;31.11;66.43;101121.13;5013848;28;69983;-34
2021/12/25 12:41:38;;;;;;;38.80;16.25;;;;;;;31.02;65.20;101127.84;5019793;28;66279;-33
2021/12/25 12:44:15;;;;;;;27.80;15.82;;;;;;;30.94;61.29;101131.63;5014112;28;70135;-34
2021/12/25 12:46:58;;;;;;;32.22;15.23;;;;;;;30.81;59.37;101138.97;5017638;28;66625;-35
2021/12/25 12:49:50;;;;;;;30.52;14.40;;;;;;;30.51;56.96;101147.56;5018585;28;69908;-35
2021/12/25 12:52:30;;;;;;;;;;;;;;;30.10;55.75;101145.91;5018144;28;65806;-34
2021/12/25 12:55:08;;;;;;;23.67;12.65;;;;;;;30.04;53.77;101106.19;5016596;28;69665;-35
2021/12/25 12:57:42;;;;;;;23.08;12.55;;;;;;;30.18;53.02;101153.81;5015473;28;66931;-34
2021/12/25 13:00:19;;;;;;;23.73;12.10;;;;;;;30.03;51.15;101147.78;5015535;28;70046;-35
2021/12/25 13:02:56;;;;;;;22.98;12.30;;;;;;;29.83;50.25;101135.06;4998285;28;66317;-34